sensor_id;sensor_type;location;lat;lon;timestamp;temperature;humidity
3075;DHT22;1548;51.716;8.748;2022-10-16T00:00:36;14.50;81.30
3075;DHT22;1548;51.716;8.748;2022-10-16T00:03:04;14.50;81.20
3075;DHT22;1548;51.716;8.748;2022-10-16T00:05:30;14.50;81.20
3075;DHT22;1548;51.716;8.748;2022-10-16T00:07:56;14.50;81.20
3075;DHT22;1548;51.716;8.748;2022-10-16T00:10:22;14.60;81.10
3075;DHT22;1548;51.716;8.748;2022-10-16T00:12:48;14.60;81.20
3075;DHT22;1548;51.716;8.748;2022-10-16T00:15:14;14.70;81.20
3075;DHT22;1548;51.716;8.748;2022-10-16T00:17:40;14.70;81.20
3075;DHT22;1548;51.716;8.748;2022-10-16T00:20:06;14.70;81.10
3075;DHT22;1548;51.716;8.748;2022-10-16T00:22:32;14.70;81.30
3075;DHT22;1548;51.716;8.748;2022-10-16T00:24:58;14.70;81.10
3075;DHT22;1548;51.716;8.748;2022-10-16T00:27:23;14.60;81.20
3075;DHT22;1548;51.716;8.748;2022-10-16T00:29:50;14.60;81.30
3075;DHT22;1548;51.716;8.748;2022-10-16T00:32:17;14.50;81.20
3075;DHT22;1548;51.716;8.748;2022-10-16T00:34:43;14.50;81.20
3075;DHT22;1548;51.716;8.748;2022-10-16T00:37:08;14.50;81.40
3075;DHT22;1548;51.716;8.748;2022-10-16T00:39:34;14.60;81.20
3075;DHT22;1548;51.716;8.748;2022-10-16T00:41:59;14.50;81.30
3075;DHT22;1548;51.716;8.748;2022-10-16T00:45:01;14.50;81.40
3075;DHT22;1548;51.716;8.748;2022-10-16T00:49:58;14.40;81.30
3075;DHT22;1548;51.716;8.748;2022-10-16T00:52:25;14.40;81.40
3075;DHT22;1548;51.716;8.748;2022-10-16T00:54:52;14.40;81.40
3075;DHT22;1548;51.716;8.748;2022-10-16T00:57:18;14.50;81.40
3075;DHT22;1548;51.716;8.748;2022-10-16T00:59:45;14.50;81.30
3075;DHT22;1548;51.716;8.748;2022-10-16T01:02:12;14.50;81.40
3075;DHT22;1548;51.716;8.748;2022-10-16T01:04:41;14.40;81.30
3075;DHT22;1548;51.716;8.748;2022-10-16T01:07:27;14.40;81.40
3075;DHT22;1548;51.716;8.748;2022-10-16T01:10:25;14.50;81.50
3075;DHT22;1548;51.716;8.748;2022-10-16T01:13:01;14.50;81.30
3075;DHT22;1548;51.716;8.748;2022-10-16T01:18:00;14.50;81.30
3075;DHT22;1548;51.716;8.748;2022-10-16T01:29:13;14.40;81.30
3075;DHT22;1548;51.716;8.748;2022-10-16T01:31:42;14.30;81.30
3075;DHT22;1548;51.716;8.748;2022-10-16T01:34:15;14.30;81.30
3075;DHT22;1548;51.716;8.748;2022-10-16T01:36:56;14.30;81.40
3075;DHT22;1548;51.716;8.748;2022-10-16T01:39:25;14.40;81.40
3075;DHT22;1548;51.716;8.748;2022-10-16T01:42:17;14.30;81.40
3075;DHT22;1548;51.716;8.748;2022-10-16T01:44:45;14.40;81.50
3075;DHT22;1548;51.716;8.748;2022-10-16T01:47:14;14.40;81.50
3075;DHT22;1548;51.716;8.748;2022-10-16T01:49:41;14.30;81.30
3075;DHT22;1548;51.716;8.748;2022-10-16T01:52:16;14.40;81.40
3075;DHT22;1548;51.716;8.748;2022-10-16T01:54:43;14.30;81.40
3075;DHT22;1548;51.716;8.748;2022-10-16T01:57:14;14.30;81.30
3075;DHT22;1548;51.716;8.748;2022-10-16T01:59:46;14.30;81.40
3075;DHT22;1548;51.716;8.748;2022-10-16T02:02:13;14.30;81.50
3075;DHT22;1548;51.716;8.748;2022-10-16T02:04:45;14.30;81.40
3075;DHT22;1548;51.716;8.748;2022-10-16T02:07:12;14.30;81.40
3075;DHT22;1548;51.716;8.748;2022-10-16T02:09:38;14.30;81.40
3075;DHT22;1548;51.716;8.748;2022-10-16T02:12:20;14.30;81.40
3075;DHT22;1548;51.716;8.748;2022-10-16T02:14:46;14.40;81.50
3075;DHT22;1548;51.716;8.748;2022-10-16T02:17:25;14.40;81.40
3075;DHT22;1548;51.716;8.748;2022-10-16T02:19:53;14.40;81.30
3075;DHT22;1548;51.716;8.748;2022-10-16T02:22:41;14.50;81.30
3075;DHT22;1548;51.716;8.748;2022-10-16T02:25:41;14.50;81.40
3075;DHT22;1548;51.716;8.748;2022-10-16T02:28:18;14.40;81.20
3075;DHT22;1548;51.716;8.748;2022-10-16T02:30:48;14.40;81.30
3075;DHT22;1548;51.716;8.748;2022-10-16T02:33:16;14.40;81.30
3075;DHT22;1548;51.716;8.748;2022-10-16T02:35:44;14.40;81.10
3075;DHT22;1548;51.716;8.748;2022-10-16T02:38:12;14.40;81.30
3075;DHT22;1548;51.716;8.748;2022-10-16T02:40:39;14.40;81.20
3075;DHT22;1548;51.716;8.748;2022-10-16T02:43:05;14.50;81.20
3075;DHT22;1548;51.716;8.748;2022-10-16T02:45:32;14.50;81.20
3075;DHT22;1548;51.716;8.748;2022-10-16T02:47:58;14.50;81.20
3075;DHT22;1548;51.716;8.748;2022-10-16T02:50:23;14.60;81.10
3075;DHT22;1548;51.716;8.748;2022-10-16T02:52:50;14.70;81.10
3075;DHT22;1548;51.716;8.748;2022-10-16T02:55:16;14.70;81.10
3075;DHT22;1548;51.716;8.748;2022-10-16T02:57:42;14.80;81.10
3075;DHT22;1548;51.716;8.748;2022-10-16T03:00:10;14.70;80.90
3075;DHT22;1548;51.716;8.748;2022-10-16T03:02:36;14.80;80.90
3075;DHT22;1548;51.716;8.748;2022-10-16T03:05:02;14.70;80.80
3075;DHT22;1548;51.716;8.748;2022-10-16T03:07:27;14.70;80.90
3075;DHT22;1548;51.716;8.748;2022-10-16T03:09:53;14.60;80.80
3075;DHT22;1548;51.716;8.748;2022-10-16T03:12:20;14.60;80.90
3075;DHT22;1548;51.716;8.748;2022-10-16T03:14:45;14.50;81.10
3075;DHT22;1548;51.716;8.748;2022-10-16T03:17:11;14.50;81.10
3075;DHT22;1548;51.716;8.748;2022-10-16T03:19:38;14.40;81.00
3075;DHT22;1548;51.716;8.748;2022-10-16T03:22:03;14.40;81.00
3075;DHT22;1548;51.716;8.748;2022-10-16T03:24:29;14.40;81.10
3075;DHT22;1548;51.716;8.748;2022-10-16T03:26:54;14.40;81.00
3075;DHT22;1548;51.716;8.748;2022-10-16T03:29:20;14.30;81.20
3075;DHT22;1548;51.716;8.748;2022-10-16T03:31:46;14.30;81.10
3075;DHT22;1548;51.716;8.748;2022-10-16T03:34:13;14.30;81.10
3075;DHT22;1548;51.716;8.748;2022-10-16T03:36:39;14.20;81.10
3075;DHT22;1548;51.716;8.748;2022-10-16T03:39:05;14.20;81.10
3075;DHT22;1548;51.716;8.748;2022-10-16T03:41:30;14.20;81.10
3075;DHT22;1548;51.716;8.748;2022-10-16T03:43:56;14.20;81.10
3075;DHT22;1548;51.716;8.748;2022-10-16T03:46:21;14.20;81.20
3075;DHT22;1548;51.716;8.748;2022-10-16T03:48:47;14.20;81.10
3075;DHT22;1548;51.716;8.748;2022-10-16T03:51:12;14.30;81.30
3075;DHT22;1548;51.716;8.748;2022-10-16T03:53:38;14.30;81.20
3075;DHT22;1548;51.716;8.748;2022-10-16T03:56:04;14.40;81.30
3075;DHT22;1548;51.716;8.748;2022-10-16T03:58:29;14.40;81.10
3075;DHT22;1548;51.716;8.748;2022-10-16T04:00:55;14.40;81.10
3075;DHT22;1548;51.716;8.748;2022-10-16T04:03:21;14.50;81.20
3075;DHT22;1548;51.716;8.748;2022-10-16T04:05:46;14.40;81.10
3075;DHT22;1548;51.716;8.748;2022-10-16T04:08:12;14.30;81.20
3075;DHT22;1548;51.716;8.748;2022-10-16T04:10:38;14.30;81.10
3075;DHT22;1548;51.716;8.748;2022-10-16T04:13:03;14.30;81.20
3075;DHT22;1548;51.716;8.748;2022-10-16T04:15:29;14.40;81.20
3075;DHT22;1548;51.716;8.748;2022-10-16T04:17:54;14.40;81.20
3075;DHT22;1548;51.716;8.748;2022-10-16T04:20:20;14.40;81.10
3075;DHT22;1548;51.716;8.748;2022-10-16T04:22:46;14.40;81.10
3075;DHT22;1548;51.716;8.748;2022-10-16T04:25:11;14.40;81.10
3075;DHT22;1548;51.716;8.748;2022-10-16T04:27:37;14.40;81.00
3075;DHT22;1548;51.716;8.748;2022-10-16T04:30:04;14.50;81.20
3075;DHT22;1548;51.716;8.748;2022-10-16T04:32:30;14.40;81.10
3075;DHT22;1548;51.716;8.748;2022-10-16T04:34:57;14.40;81.10
3075;DHT22;1548;51.716;8.748;2022-10-16T04:37:26;14.40;81.10
3075;DHT22;1548;51.716;8.748;2022-10-16T04:39:53;14.40;81.00
3075;DHT22;1548;51.716;8.748;2022-10-16T04:42:19;14.40;81.00
3075;DHT22;1548;51.716;8.748;2022-10-16T04:44:45;14.50;81.10
3075;DHT22;1548;51.716;8.748;2022-10-16T04:47:11;14.40;80.90
3075;DHT22;1548;51.716;8.748;2022-10-16T04:49:37;14.40;80.80
3075;DHT22;1548;51.716;8.748;2022-10-16T04:52:03;14.50;80.90
3075;DHT22;1548;51.716;8.748;2022-10-16T04:54:29;14.60;80.80
3075;DHT22;1548;51.716;8.748;2022-10-16T04:56:54;14.60;80.80
3075;DHT22;1548;51.716;8.748;2022-10-16T04:59:21;14.60;80.70
3075;DHT22;1548;51.716;8.748;2022-10-16T05:01:47;14.60;80.80
3075;DHT22;1548;51.716;8.748;2022-10-16T05:04:13;14.60;80.80
3075;DHT22;1548;51.716;8.748;2022-10-16T05:06:40;14.60;80.80
3075;DHT22;1548;51.716;8.748;2022-10-16T05:09:06;14.60;80.80
3075;DHT22;1548;51.716;8.748;2022-10-16T05:11:32;14.60;80.70
3075;DHT22;1548;51.716;8.748;2022-10-16T05:13:58;14.70;80.70
3075;DHT22;1548;51.716;8.748;2022-10-16T05:16:24;14.70;80.70
3075;DHT22;1548;51.716;8.748;2022-10-16T05:18:51;14.70;80.70
3075;DHT22;1548;51.716;8.748;2022-10-16T05:21:17;14.80;80.70
3075;DHT22;1548;51.716;8.748;2022-10-16T05:23:43;14.70;80.50
3075;DHT22;1548;51.716;8.748;2022-10-16T05:26:09;14.70;80.60
3075;DHT22;1548;51.716;8.748;2022-10-16T05:28:34;14.60;80.70
3075;DHT22;1548;51.716;8.748;2022-10-16T05:31:05;14.60;80.70
3075;DHT22;1548;51.716;8.748;2022-10-16T05:33:31;14.60;80.50
3075;DHT22;1548;51.716;8.748;2022-10-16T05:35:57;14.50;80.70
3075;DHT22;1548;51.716;8.748;2022-10-16T05:38:27;14.50;80.80
3075;DHT22;1548;51.716;8.748;2022-10-16T05:40:52;14.50;80.90
3075;DHT22;1548;51.716;8.748;2022-10-16T05:43:18;14.50;80.70
3075;DHT22;1548;51.716;8.748;2022-10-16T05:45:44;14.60;80.60
3075;DHT22;1548;51.716;8.748;2022-10-16T05:48:09;14.60;80.60
3075;DHT22;1548;51.716;8.748;2022-10-16T05:50:35;14.50;80.80
3075;DHT22;1548;51.716;8.748;2022-10-16T05:53:02;14.50;80.70
3075;DHT22;1548;51.716;8.748;2022-10-16T05:55:27;14.50;80.60
3075;DHT22;1548;51.716;8.748;2022-10-16T05:57:56;14.50;80.60
3075;DHT22;1548;51.716;8.748;2022-10-16T06:00:21;14.50;80.50
3075;DHT22;1548;51.716;8.748;2022-10-16T06:02:48;14.50;80.50
3075;DHT22;1548;51.716;8.748;2022-10-16T06:05:14;14.50;80.60
3075;DHT22;1548;51.716;8.748;2022-10-16T06:07:39;14.60;80.40
3075;DHT22;1548;51.716;8.748;2022-10-16T06:10:05;14.60;80.40
3075;DHT22;1548;51.716;8.748;2022-10-16T06:12:31;14.60;80.30
3075;DHT22;1548;51.716;8.748;2022-10-16T06:14:57;14.60;80.30
3075;DHT22;1548;51.716;8.748;2022-10-16T06:17:22;14.70;80.30
3075;DHT22;1548;51.716;8.748;2022-10-16T06:19:48;14.70;80.20
3075;DHT22;1548;51.716;8.748;2022-10-16T06:22:13;14.70;80.10
3075;DHT22;1548;51.716;8.748;2022-10-16T06:24:39;14.70;80.10
3075;DHT22;1548;51.716;8.748;2022-10-16T06:27:04;14.70;80.10
3075;DHT22;1548;51.716;8.748;2022-10-16T06:29:30;14.80;80.10
3075;DHT22;1548;51.716;8.748;2022-10-16T06:31:56;14.90;80.10
3075;DHT22;1548;51.716;8.748;2022-10-16T06:34:21;14.90;80.00
3075;DHT22;1548;51.716;8.748;2022-10-16T06:36:47;15.00;79.90
3075;DHT22;1548;51.716;8.748;2022-10-16T06:39:12;15.10;79.80
3075;DHT22;1548;51.716;8.748;2022-10-16T06:41:38;15.10;79.60
3075;DHT22;1548;51.716;8.748;2022-10-16T06:44:07;15.10;79.60
3075;DHT22;1548;51.716;8.748;2022-10-16T06:46:35;15.20;79.60
3075;DHT22;1548;51.716;8.748;2022-10-16T06:49:01;15.30;79.40
3075;DHT22;1548;51.716;8.748;2022-10-16T06:51:27;15.30;79.50
3075;DHT22;1548;51.716;8.748;2022-10-16T06:53:55;15.40;79.40
3075;DHT22;1548;51.716;8.748;2022-10-16T06:56:25;15.50;79.40
3075;DHT22;1548;51.716;8.748;2022-10-16T06:58:52;15.50;79.20
3075;DHT22;1548;51.716;8.748;2022-10-16T07:01:20;15.50;79.10
3075;DHT22;1548;51.716;8.748;2022-10-16T07:03:46;15.50;79.20
3075;DHT22;1548;51.716;8.748;2022-10-16T07:06:14;15.50;79.20
3075;DHT22;1548;51.716;8.748;2022-10-16T07:08:42;15.60;79.20
3075;DHT22;1548;51.716;8.748;2022-10-16T07:11:13;15.70;79.10
3075;DHT22;1548;51.716;8.748;2022-10-16T07:13:41;15.70;79.00
3075;DHT22;1548;51.716;8.748;2022-10-16T07:16:07;15.80;78.90
3075;DHT22;1548;51.716;8.748;2022-10-16T07:18:33;15.90;78.70
3075;DHT22;1548;51.716;8.748;2022-10-16T07:21:04;15.90;78.70
3075;DHT22;1548;51.716;8.748;2022-10-16T07:23:30;16.00;78.70
3075;DHT22;1548;51.716;8.748;2022-10-16T07:25:56;16.00;78.70
3075;DHT22;1548;51.716;8.748;2022-10-16T07:28:21;16.00;78.60
3075;DHT22;1548;51.716;8.748;2022-10-16T07:30:47;16.00;78.70
3075;DHT22;1548;51.716;8.748;2022-10-16T07:33:13;16.00;78.70
3075;DHT22;1548;51.716;8.748;2022-10-16T07:35:50;16.00;78.70
3075;DHT22;1548;51.716;8.748;2022-10-16T07:38:16;16.10;78.80
3075;DHT22;1548;51.716;8.748;2022-10-16T07:40:42;16.10;78.70
3075;DHT22;1548;51.716;8.748;2022-10-16T07:43:08;16.20;78.80
3075;DHT22;1548;51.716;8.748;2022-10-16T07:45:33;16.30;78.70
3075;DHT22;1548;51.716;8.748;2022-10-16T07:47:59;16.30;78.70
3075;DHT22;1548;51.716;8.748;2022-10-16T07:50:24;16.40;78.60
3075;DHT22;1548;51.716;8.748;2022-10-16T07:52:50;16.30;78.60
3075;DHT22;1548;51.716;8.748;2022-10-16T07:55:17;16.30;78.70
3075;DHT22;1548;51.716;8.748;2022-10-16T07:57:42;16.40;78.50
3075;DHT22;1548;51.716;8.748;2022-10-16T08:00:08;16.50;78.50
3075;DHT22;1548;51.716;8.748;2022-10-16T08:02:41;16.60;78.30
3075;DHT22;1548;51.716;8.748;2022-10-16T08:05:08;16.70;78.30
3075;DHT22;1548;51.716;8.748;2022-10-16T08:07:34;16.80;78.20
3075;DHT22;1548;51.716;8.748;2022-10-16T08:10:00;16.90;78.00
3075;DHT22;1548;51.716;8.748;2022-10-16T08:12:26;16.90;77.80
3075;DHT22;1548;51.716;8.748;2022-10-16T08:14:51;16.90;77.90
3075;DHT22;1548;51.716;8.748;2022-10-16T08:17:17;16.90;78.00
3075;DHT22;1548;51.716;8.748;2022-10-16T08:19:48;16.90;78.10
3075;DHT22;1548;51.716;8.748;2022-10-16T08:22:16;16.90;77.90
3075;DHT22;1548;51.716;8.748;2022-10-16T08:24:41;16.90;78.00
3075;DHT22;1548;51.716;8.748;2022-10-16T08:27:07;16.90;77.90
3075;DHT22;1548;51.716;8.748;2022-10-16T08:29:34;16.80;78.20
3075;DHT22;1548;51.716;8.748;2022-10-16T08:32:00;16.80;78.20
3075;DHT22;1548;51.716;8.748;2022-10-16T08:34:25;16.90;78.10
3075;DHT22;1548;51.716;8.748;2022-10-16T08:36:53;16.90;78.00
3075;DHT22;1548;51.716;8.748;2022-10-16T08:39:19;16.80;78.20
3075;DHT22;1548;51.716;8.748;2022-10-16T08:42:11;16.80;78.10
3075;DHT22;1548;51.716;8.748;2022-10-16T08:47:23;16.80;78.30
3075;DHT22;1548;51.716;8.748;2022-10-16T08:49:59;16.80;78.20
3075;DHT22;1548;51.716;8.748;2022-10-16T08:52:29;16.80;78.00
3075;DHT22;1548;51.716;8.748;2022-10-16T08:54:56;16.80;77.90
3075;DHT22;1548;51.716;8.748;2022-10-16T08:57:24;16.90;78.00
3075;DHT22;1548;51.716;8.748;2022-10-16T08:59:52;17.00;77.90
3075;DHT22;1548;51.716;8.748;2022-10-16T09:02:33;17.10;77.60
3075;DHT22;1548;51.716;8.748;2022-10-16T09:08:27;17.60;77.20
3075;DHT22;1548;51.716;8.748;2022-10-16T09:11:07;17.80;76.80
3075;DHT22;1548;51.716;8.748;2022-10-16T09:19:39;17.70;76.60
3075;DHT22;1548;51.716;8.748;2022-10-16T09:22:17;17.80;76.60
3075;DHT22;1548;51.716;8.748;2022-10-16T09:24:44;17.80;76.50
3075;DHT22;1548;51.716;8.748;2022-10-16T09:27:11;17.60;76.20
3075;DHT22;1548;51.716;8.748;2022-10-16T09:29:37;17.60;76.30
3075;DHT22;1548;51.716;8.748;2022-10-16T09:32:11;17.60;76.40
3075;DHT22;1548;51.716;8.748;2022-10-16T09:34:46;17.60;76.30
3075;DHT22;1548;51.716;8.748;2022-10-16T09:37:16;17.70;76.30
3075;DHT22;1548;51.716;8.748;2022-10-16T09:39:47;17.70;76.40
3075;DHT22;1548;51.716;8.748;2022-10-16T09:42:16;17.50;75.90
3075;DHT22;1548;51.716;8.748;2022-10-16T09:44:42;17.30;76.20
3075;DHT22;1548;51.716;8.748;2022-10-16T09:47:15;17.30;76.10
3075;DHT22;1548;51.716;8.748;2022-10-16T09:49:53;17.20;75.90
3075;DHT22;1548;51.716;8.748;2022-10-16T09:52:22;17.20;75.70
3075;DHT22;1548;51.716;8.748;2022-10-16T09:54:59;17.10;75.50
3075;DHT22;1548;51.716;8.748;2022-10-16T09:57:25;17.10;75.50
3075;DHT22;1548;51.716;8.748;2022-10-16T09:59:55;17.00;76.00
3075;DHT22;1548;51.716;8.748;2022-10-16T10:02:31;17.10;75.90
3075;DHT22;1548;51.716;8.748;2022-10-16T10:04:59;17.20;75.90
3075;DHT22;1548;51.716;8.748;2022-10-16T10:07:27;17.10;75.40
3075;DHT22;1548;51.716;8.748;2022-10-16T10:09:53;17.10;74.60
3075;DHT22;1548;51.716;8.748;2022-10-16T10:12:25;17.20;74.70
3075;DHT22;1548;51.716;8.748;2022-10-16T10:14:55;17.20;74.50
3075;DHT22;1548;51.716;8.748;2022-10-16T10:17:26;17.20;74.80
3075;DHT22;1548;51.716;8.748;2022-10-16T10:20:00;17.10;74.90
3075;DHT22;1548;51.716;8.748;2022-10-16T10:24:57;17.10;75.00
3075;DHT22;1548;51.716;8.748;2022-10-16T10:27:32;17.10;75.00
3075;DHT22;1548;51.716;8.748;2022-10-16T10:30:10;17.20;74.60
3075;DHT22;1548;51.716;8.748;2022-10-16T10:39:10;17.40;73.20
3075;DHT22;1548;51.716;8.748;2022-10-16T10:47:07;17.70;72.90
3075;DHT22;1548;51.716;8.748;2022-10-16T11:04:39;18.10;72.00
3075;DHT22;1548;51.716;8.748;2022-10-16T11:09:11;18.10;71.60
3075;DHT22;1548;51.716;8.748;2022-10-16T11:11:43;18.00;71.50
3075;DHT22;1548;51.716;8.748;2022-10-16T11:14:21;18.10;71.90
3075;DHT22;1548;51.716;8.748;2022-10-16T11:16:54;18.10;72.00
3075;DHT22;1548;51.716;8.748;2022-10-16T11:25:04;18.30;71.90
3075;DHT22;1548;51.716;8.748;2022-10-16T11:30:30;18.50;71.70
3075;DHT22;1548;51.716;8.748;2022-10-16T11:36:06;18.70;71.40
3075;DHT22;1548;51.716;8.748;2022-10-16T11:38:43;18.70;70.90
3075;DHT22;1548;51.716;8.748;2022-10-16T11:43:43;18.70;70.20
3075;DHT22;1548;51.716;8.748;2022-10-16T11:46:19;18.50;70.30
3075;DHT22;1548;51.716;8.748;2022-10-16T11:56:26;18.80;71.00
3075;DHT22;1548;51.716;8.748;2022-10-16T11:59:13;18.60;70.60
3075;DHT22;1548;51.716;8.748;2022-10-16T12:04:31;18.60;71.40
3075;DHT22;1548;51.716;8.748;2022-10-16T12:07:09;18.70;71.20
3075;DHT22;1548;51.716;8.748;2022-10-16T12:09:40;18.70;71.50
3075;DHT22;1548;51.716;8.748;2022-10-16T12:12:26;18.70;70.80
3075;DHT22;1548;51.716;8.748;2022-10-16T12:15:02;18.60;70.90
3075;DHT22;1548;51.716;8.748;2022-10-16T12:17:38;18.60;71.60
3075;DHT22;1548;51.716;8.748;2022-10-16T12:20:28;18.70;71.20
3075;DHT22;1548;51.716;8.748;2022-10-16T12:23:02;18.70;70.50
3075;DHT22;1548;51.716;8.748;2022-10-16T12:25:39;18.70;70.80
3075;DHT22;1548;51.716;8.748;2022-10-16T12:30:41;18.80;71.20
3075;DHT22;1548;51.716;8.748;2022-10-16T12:33:22;18.90;70.80
3075;DHT22;1548;51.716;8.748;2022-10-16T12:35:48;18.90;70.60
3075;DHT22;1548;51.716;8.748;2022-10-16T12:38:47;18.90;70.90
3075;DHT22;1548;51.716;8.748;2022-10-16T12:41:34;18.70;70.70
3075;DHT22;1548;51.716;8.748;2022-10-16T12:44:01;18.70;71.10
3075;DHT22;1548;51.716;8.748;2022-10-16T12:51:40;18.70;71.30
3075;DHT22;1548;51.716;8.748;2022-10-16T12:54:16;18.80;71.40
3075;DHT22;1548;51.716;8.748;2022-10-16T12:59:55;18.80;71.30
3075;DHT22;1548;51.716;8.748;2022-10-16T13:08:13;19.00;70.90
3075;DHT22;1548;51.716;8.748;2022-10-16T13:22:03;19.10;70.90
3075;DHT22;1548;51.716;8.748;2022-10-16T13:27:30;19.20;70.20
3075;DHT22;1548;51.716;8.748;2022-10-16T13:30:07;19.30;70.30
3075;DHT22;1548;51.716;8.748;2022-10-16T13:32:34;19.30;70.50
3075;DHT22;1548;51.716;8.748;2022-10-16T13:34:59;19.30;71.10
3075;DHT22;1548;51.716;8.748;2022-10-16T13:37:26;19.30;71.00
3075;DHT22;1548;51.716;8.748;2022-10-16T13:40:47;19.20;71.20
3075;DHT22;1548;51.716;8.748;2022-10-16T13:43:00;19.20;71.20
3075;DHT22;1548;51.716;8.748;2022-10-16T13:45:26;19.10;71.50
3075;DHT22;1548;51.716;8.748;2022-10-16T13:48:06;19.10;71.50
3075;DHT22;1548;51.716;8.748;2022-10-16T13:50:36;19.10;71.70
3075;DHT22;1548;51.716;8.748;2022-10-16T13:53:30;19.10;71.70
3075;DHT22;1548;51.716;8.748;2022-10-16T13:55:56;19.10;71.30
3075;DHT22;1548;51.716;8.748;2022-10-16T13:58:22;19.10;71.50
3075;DHT22;1548;51.716;8.748;2022-10-16T14:01:19;19.20;71.30
3075;DHT22;1548;51.716;8.748;2022-10-16T14:03:47;19.20;71.40
3075;DHT22;1548;51.716;8.748;2022-10-16T14:06:20;19.30;71.10
3075;DHT22;1548;51.716;8.748;2022-10-16T14:11:47;19.40;70.90
3075;DHT22;1548;51.716;8.748;2022-10-16T14:14:14;19.30;70.50
3075;DHT22;1548;51.716;8.748;2022-10-16T14:16:42;19.20;70.60
3075;DHT22;1548;51.716;8.748;2022-10-16T14:19:28;19.10;71.00
3075;DHT22;1548;51.716;8.748;2022-10-16T14:21:56;19.20;70.90
3075;DHT22;1548;51.716;8.748;2022-10-16T14:24:33;19.20;70.70
3075;DHT22;1548;51.716;8.748;2022-10-16T14:26:59;19.30;70.50
3075;DHT22;1548;51.716;8.748;2022-10-16T14:29:28;19.30;70.60
3075;DHT22;1548;51.716;8.748;2022-10-16T14:32:01;19.20;70.80
3075;DHT22;1548;51.716;8.748;2022-10-16T14:36:56;19.20;70.20
3075;DHT22;1548;51.716;8.748;2022-10-16T14:39:25;19.20;70.40
3075;DHT22;1548;51.716;8.748;2022-10-16T14:41:52;19.10;70.50
3075;DHT22;1548;51.716;8.748;2022-10-16T14:44:18;19.10;70.80
3075;DHT22;1548;51.716;8.748;2022-10-16T14:46:45;19.10;70.70
3075;DHT22;1548;51.716;8.748;2022-10-16T14:51:42;19.20;70.60
3075;DHT22;1548;51.716;8.748;2022-10-16T14:54:10;19.20;70.60
3075;DHT22;1548;51.716;8.748;2022-10-16T14:56:52;19.20;70.40
3075;DHT22;1548;51.716;8.748;2022-10-16T14:59:37;19.30;70.70
3075;DHT22;1548;51.716;8.748;2022-10-16T15:02:22;19.20;70.40
3075;DHT22;1548;51.716;8.748;2022-10-16T15:04:50;19.10;70.20
3075;DHT22;1548;51.716;8.748;2022-10-16T15:07:17;19.10;70.60
3075;DHT22;1548;51.716;8.748;2022-10-16T15:09:42;19.00;71.00
3075;DHT22;1548;51.716;8.748;2022-10-16T15:12:08;18.90;71.10
3075;DHT22;1548;51.716;8.748;2022-10-16T15:14:34;18.90;71.20
3075;DHT22;1548;51.716;8.748;2022-10-16T15:16:59;18.90;71.30
3075;DHT22;1548;51.716;8.748;2022-10-16T15:19:25;18.90;71.20
3075;DHT22;1548;51.716;8.748;2022-10-16T15:21:51;18.90;71.50
3075;DHT22;1548;51.716;8.748;2022-10-16T15:24:18;19.00;71.30
3075;DHT22;1548;51.716;8.748;2022-10-16T15:26:43;19.00;71.10
3075;DHT22;1548;51.716;8.748;2022-10-16T15:29:11;19.10;71.20
3075;DHT22;1548;51.716;8.748;2022-10-16T15:31:37;19.10;71.40
3075;DHT22;1548;51.716;8.748;2022-10-16T15:34:03;19.00;71.70
3075;DHT22;1548;51.716;8.748;2022-10-16T15:36:34;19.10;71.80
3075;DHT22;1548;51.716;8.748;2022-10-16T15:39:03;19.00;71.90
3075;DHT22;1548;51.716;8.748;2022-10-16T15:41:30;18.90;72.00
3075;DHT22;1548;51.716;8.748;2022-10-16T15:43:56;18.80;72.30
3075;DHT22;1548;51.716;8.748;2022-10-16T15:46:23;18.70;72.40
3075;DHT22;1548;51.716;8.748;2022-10-16T15:48:51;18.70;72.40
3075;DHT22;1548;51.716;8.748;2022-10-16T15:51:20;18.70;72.50
3075;DHT22;1548;51.716;8.748;2022-10-16T15:53:46;18.70;72.80
3075;DHT22;1548;51.716;8.748;2022-10-16T15:56:12;18.60;72.90
3075;DHT22;1548;51.716;8.748;2022-10-16T15:58:38;18.60;73.00
3075;DHT22;1548;51.716;8.748;2022-10-16T16:01:05;18.50;73.00
3075;DHT22;1548;51.716;8.748;2022-10-16T16:03:32;18.60;73.00
3075;DHT22;1548;51.716;8.748;2022-10-16T16:05:58;18.60;73.10
3075;DHT22;1548;51.716;8.748;2022-10-16T16:08:23;18.40;73.30
3075;DHT22;1548;51.716;8.748;2022-10-16T16:11:04;18.40;73.50
3075;DHT22;1548;51.716;8.748;2022-10-16T16:13:30;18.30;73.70
3075;DHT22;1548;51.716;8.748;2022-10-16T16:15:56;18.30;73.70
3075;DHT22;1548;51.716;8.748;2022-10-16T16:18:22;18.20;73.70
3075;DHT22;1548;51.716;8.748;2022-10-16T16:20:49;18.10;74.00
3075;DHT22;1548;51.716;8.748;2022-10-16T16:23:15;18.00;74.30
3075;DHT22;1548;51.716;8.748;2022-10-16T16:25:40;17.90;74.40
3075;DHT22;1548;51.716;8.748;2022-10-16T16:28:06;17.90;74.70
3075;DHT22;1548;51.716;8.748;2022-10-16T16:30:32;17.90;74.60
3075;DHT22;1548;51.716;8.748;2022-10-16T16:32:58;17.80;74.80
3075;DHT22;1548;51.716;8.748;2022-10-16T16:35:23;17.80;74.80
3075;DHT22;1548;51.716;8.748;2022-10-16T16:37:49;17.70;75.00
3075;DHT22;1548;51.716;8.748;2022-10-16T16:40:14;17.60;75.20
3075;DHT22;1548;51.716;8.748;2022-10-16T16:42:40;17.50;75.20
3075;DHT22;1548;51.716;8.748;2022-10-16T16:45:06;17.50;75.50
3075;DHT22;1548;51.716;8.748;2022-10-16T16:47:33;17.60;75.40
3075;DHT22;1548;51.716;8.748;2022-10-16T16:49:59;17.50;75.30
3075;DHT22;1548;51.716;8.748;2022-10-16T16:52:24;17.40;75.50
3075;DHT22;1548;51.716;8.748;2022-10-16T16:54:50;17.40;75.50
3075;DHT22;1548;51.716;8.748;2022-10-16T16:57:19;17.30;75.60
3075;DHT22;1548;51.716;8.748;2022-10-16T16:59:45;17.30;75.70
3075;DHT22;1548;51.716;8.748;2022-10-16T17:02:10;17.30;76.00
3075;DHT22;1548;51.716;8.748;2022-10-16T17:04:36;17.20;76.20
3075;DHT22;1548;51.716;8.748;2022-10-16T17:07:02;17.30;76.10
3075;DHT22;1548;51.716;8.748;2022-10-16T17:09:28;17.20;76.20
3075;DHT22;1548;51.716;8.748;2022-10-16T17:11:56;17.20;76.30
3075;DHT22;1548;51.716;8.748;2022-10-16T17:14:22;17.40;76.30
3075;DHT22;1548;51.716;8.748;2022-10-16T17:16:47;17.40;76.30
3075;DHT22;1548;51.716;8.748;2022-10-16T17:19:16;17.20;76.40
3075;DHT22;1548;51.716;8.748;2022-10-16T17:21:43;17.10;76.70
3075;DHT22;1548;51.716;8.748;2022-10-16T17:24:08;17.00;77.00
3075;DHT22;1548;51.716;8.748;2022-10-16T17:26:35;17.00;77.20
3075;DHT22;1548;51.716;8.748;2022-10-16T17:29:02;16.90;77.30
3075;DHT22;1548;51.716;8.748;2022-10-16T17:31:33;16.80;77.60
3075;DHT22;1548;51.716;8.748;2022-10-16T17:34:01;16.80;77.60
3075;DHT22;1548;51.716;8.748;2022-10-16T17:36:30;16.70;77.60
3075;DHT22;1548;51.716;8.748;2022-10-16T17:38:59;16.70;77.70
3075;DHT22;1548;51.716;8.748;2022-10-16T17:41:26;16.60;77.80
3075;DHT22;1548;51.716;8.748;2022-10-16T17:43:52;16.60;77.90
3075;DHT22;1548;51.716;8.748;2022-10-16T17:46:20;16.60;77.90
3075;DHT22;1548;51.716;8.748;2022-10-16T17:48:48;16.60;78.00
3075;DHT22;1548;51.716;8.748;2022-10-16T17:51:18;16.60;78.10
3075;DHT22;1548;51.716;8.748;2022-10-16T17:53:48;16.60;78.10
3075;DHT22;1548;51.716;8.748;2022-10-16T17:56:14;16.40;78.20
3075;DHT22;1548;51.716;8.748;2022-10-16T17:58:40;16.40;78.50
3075;DHT22;1548;51.716;8.748;2022-10-16T18:01:15;16.40;78.50
3075;DHT22;1548;51.716;8.748;2022-10-16T18:03:41;16.30;78.40
3075;DHT22;1548;51.716;8.748;2022-10-16T18:06:07;16.30;78.20
3075;DHT22;1548;51.716;8.748;2022-10-16T18:08:33;16.30;78.40
3075;DHT22;1548;51.716;8.748;2022-10-16T18:11:02;16.40;78.20
3075;DHT22;1548;51.716;8.748;2022-10-16T18:13:28;16.40;78.00